createdAt,value
2023-05-19T00:01:32.106Z,100.00
2023-05-19T00:06:34.490Z,100.00
2023-05-19T00:11:40.944Z,100.00
2023-05-19T00:16:48.850Z,100.00
2023-05-19T00:21:55.287Z,100.00
2023-05-19T00:27:00.083Z,100.00
2023-05-19T00:32:04.291Z,100.00
2023-05-19T00:37:08.557Z,100.00
2023-05-19T00:42:12.454Z,100.00
2023-05-19T00:47:14.180Z,100.00
2023-05-19T00:52:15.909Z,100.00
2023-05-19T00:57:22.918Z,100.00
2023-05-19T01:02:32.457Z,100.00
2023-05-19T01:07:34.549Z,100.00
2023-05-19T01:12:37.575Z,100.00
2023-05-19T01:18:12.099Z,100.00
2023-05-19T01:24:09.206Z,100.00
2023-05-19T01:29:21.993Z,100.00
2023-05-19T01:34:26.148Z,100.00
2023-05-19T01:39:28.496Z,100.00
2023-05-19T01:44:33.592Z,100.00
2023-05-19T01:49:37.485Z,100.00
2023-05-19T01:54:42.225Z,100.00
2023-05-19T02:00:00.768Z,100.00
2023-05-19T02:05:14.564Z,100.00
2023-05-19T02:10:25.822Z,100.00
2023-05-19T02:15:38.686Z,100.00
2023-05-19T02:20:42.971Z,100.00
2023-05-19T02:25:50.184Z,100.00
2023-05-19T02:30:51.989Z,100.00
2023-05-19T02:35:53.713Z,100.00
2023-05-19T02:40:58.662Z,100.00
2023-05-19T02:46:05.452Z,100.00
2023-05-19T02:51:07.184Z,100.00
2023-05-19T02:56:08.990Z,100.00
2023-05-19T03:01:12.853Z,100.00
2023-05-19T03:06:18.078Z,100.00
2023-05-19T03:11:19.960Z,100.00
2023-05-19T03:16:22.057Z,100.00
2023-05-19T03:21:26.327Z,100.00
2023-05-19T03:26:29.379Z,100.00
2023-05-19T03:31:34.936Z,100.00
2023-05-19T03:36:39.414Z,100.00
2023-05-19T03:41:47.900Z,100.00
2023-05-19T03:46:52.629Z,100.00
2023-05-19T03:52:17.452Z,100.00
2023-05-19T03:57:36.347Z,100.00
2023-05-19T04:02:38.357Z,100.00
2023-05-19T04:07:43.063Z,100.00
2023-05-19T04:12:44.793Z,100.00
2023-05-19T04:17:46.585Z,100.00
2023-05-19T04:22:48.359Z,100.00
2023-05-19T04:27:50.080Z,100.00
2023-05-19T04:32:52.109Z,100.00
2023-05-19T04:37:54.442Z,100.00
2023-05-19T04:43:02.225Z,100.00
2023-05-19T04:48:05.341Z,100.00
2023-05-19T04:53:07.285Z,100.00
2023-05-19T04:58:11.562Z,100.00
2023-05-19T05:03:16.491Z,100.00
2023-05-19T05:08:24.622Z,100.00
2023-05-19T05:13:32.930Z,100.00
2023-05-19T05:18:36.655Z,100.00
2023-05-19T05:23:41.720Z,100.00
2023-05-19T05:28:47.129Z,100.00
2023-05-19T05:33:49.927Z,99.61
2023-05-19T05:38:55.386Z,99.18
2023-05-19T05:43:58.266Z,97.94
2023-05-19T05:49:00.528Z,96.35
2023-05-19T05:54:08.827Z,95.88
2023-05-19T05:59:15.253Z,95.19
2023-05-19T06:04:22.709Z,93.91
2023-05-19T06:09:24.605Z,92.90
2023-05-19T06:14:29.201Z,91.28
2023-05-19T06:20:00.806Z,90.06
2023-05-19T06:25:03.632Z,90.39
2023-05-19T06:30:08.592Z,89.17
2023-05-19T06:35:18.652Z,89.27
2023-05-19T06:40:20.737Z,88.30
2023-05-19T06:45:27.503Z,87.13
2023-05-19T06:50:34.352Z,84.67
2023-05-19T06:55:47.189Z,83.86
2023-05-19T07:00:58.440Z,83.60
2023-05-19T07:06:07.115Z,84.48
2023-05-19T07:11:15.498Z,83.72
2023-05-19T07:16:18.445Z,84.30
2023-05-19T07:21:20.566Z,83.81
2023-05-19T07:26:23.853Z,83.87
2023-05-19T07:31:26.156Z,83.03
2023-05-19T07:36:27.983Z,80.66
2023-05-19T07:41:32.551Z,79.74
2023-05-19T07:46:35.976Z,79.43
2023-05-19T07:51:37.767Z,79.61
2023-05-19T07:56:44.365Z,78.68
2023-05-19T08:01:48.726Z,78.88
2023-05-19T08:06:52.329Z,78.62
2023-05-19T08:11:54.204Z,77.24
2023-05-19T08:16:56.450Z,77.36
2023-05-19T08:22:01.121Z,76.67
2023-05-19T08:27:05.773Z,76.81
2023-05-19T08:32:12.966Z,77.19
2023-05-19T08:37:15.096Z,77.81
2023-05-19T08:42:17.404Z,79.31
2023-05-19T08:47:19.817Z,79.74
2023-05-19T08:52:30.636Z,79.84
2023-05-19T08:57:34.803Z,79.36
2023-05-19T09:02:50.468Z,78.13
2023-05-19T09:08:03.525Z,77.39
2023-05-19T09:13:09.821Z,77.82
2023-05-19T09:18:17.408Z,76.47
2023-05-19T09:23:20.969Z,77.93
2023-05-19T09:28:30.726Z,78.99
2023-05-19T09:33:37.452Z,79.19
2023-05-19T09:38:41.867Z,76.80
2023-05-19T09:43:43.835Z,76.87
2023-05-19T09:48:47.878Z,76.40
2023-05-19T09:53:49.680Z,77.05
2023-05-19T09:58:52.483Z,77.43
2023-05-19T10:03:57.260Z,76.51
2023-05-19T10:08:59.227Z,76.08
2023-05-19T10:14:03.411Z,75.90
2023-05-19T10:19:09.530Z,73.18
2023-05-19T10:24:13.848Z,72.85
2023-05-19T10:29:20.908Z,71.34
2023-05-19T10:34:34.799Z,69.57
2023-05-19T10:39:39.721Z,70.51
2023-05-19T10:45:00.901Z,69.29
2023-05-19T10:50:04.735Z,69.51
2023-05-19T10:55:15.690Z,66.73
2023-05-19T11:00:28.330Z,64.69
2023-05-19T11:05:30.249Z,65.72
2023-05-19T11:10:32.211Z,65.07
2023-05-19T11:15:40.842Z,65.42
2023-05-19T11:20:42.639Z,65.07
2023-05-19T11:25:50.821Z,66.38
2023-05-19T11:30:54.690Z,66.05
2023-05-19T11:35:59.075Z,66.00
2023-05-19T11:41:01.517Z,63.86
2023-05-19T11:46:03.424Z,63.21
2023-05-19T11:51:06.821Z,61.87
2023-05-19T11:56:14.881Z,59.23
2023-05-19T12:01:17.307Z,55.89
2023-05-19T12:06:19.332Z,53.14
2023-05-19T12:11:21.743Z,52.20
2023-05-19T12:16:23.597Z,48.93
2023-05-19T12:21:34.269Z,46.80
2023-05-19T12:26:37.556Z,46.05
2023-05-19T12:31:39.740Z,42.23
2023-05-19T12:36:46.568Z,40.70
2023-05-19T12:41:48.342Z,38.44
2023-05-19T12:46:52.269Z,36.49
2023-05-19T12:51:56.218Z,35.14
2023-05-19T12:56:58.780Z,36.04
2023-05-19T13:02:03.635Z,36.06
2023-05-19T13:07:10.285Z,33.02
2023-05-19T13:12:14.553Z,31.61
2023-05-19T13:17:16.343Z,32.54
2023-05-19T13:22:18.407Z,31.97
2023-05-19T13:27:20.218Z,31.23
2023-05-19T13:32:24.183Z,31.16
2023-05-19T13:37:28.375Z,30.62
2023-05-19T13:42:30.214Z,29.79
2023-05-19T13:47:36.913Z,28.87
2023-05-19T13:52:38.655Z,28.15
2023-05-19T13:57:42.170Z,27.78
2023-05-19T14:02:48.318Z,26.70
2023-05-19T14:07:52.560Z,25.35
2023-05-19T14:13:25.882Z,24.67
2023-05-19T14:18:16.727Z,24.30
2023-05-19T14:23:20.088Z,24.60
2023-05-19T14:28:21.828Z,23.68
2023-05-19T14:33:24.041Z,23.01
2023-05-19T14:38:27.583Z,22.53
2023-05-19T14:43:32.452Z,22.52
2023-05-19T14:48:36.528Z,21.67
2023-05-19T14:53:38.324Z,20.27
2023-05-19T14:58:44.978Z,20.06
2023-05-19T15:03:51.572Z,19.43
2023-05-19T15:08:55.753Z,19.25
2023-05-19T15:14:08.137Z,19.42
2023-05-19T15:19:12.567Z,18.79
2023-05-19T15:24:16.921Z,19.53
2023-05-19T15:29:20.919Z,19.23
2023-05-19T15:34:25.552Z,18.56
2023-05-19T15:39:29.604Z,18.85
2023-05-19T15:44:31.388Z,18.37
2023-05-19T15:49:33.310Z,18.55
2023-05-19T15:54:35.050Z,17.73
2023-05-19T15:59:39.318Z,18.40
2023-05-19T16:04:44.045Z,18.01
2023-05-19T16:09:45.950Z,19.32
2023-05-19T16:14:52.973Z,18.84
2023-05-19T16:19:59.769Z,19.25
2023-05-19T16:25:04.370Z,19.09
2023-05-19T16:30:06.838Z,19.04
2023-05-19T16:35:11.046Z,19.46
2023-05-19T16:40:13.192Z,18.97
2023-05-19T16:45:17.687Z,19.34
2023-05-19T16:50:19.437Z,19.99
2023-05-19T16:55:22.676Z,20.01
2023-05-19T17:00:24.540Z,20.81
2023-05-19T17:05:29.098Z,21.48
2023-05-19T17:10:31.050Z,26.75
2023-05-19T17:15:33.894Z,31.42
2023-05-19T17:20:40.324Z,35.27
2023-05-19T17:25:42.126Z,38.39
2023-05-19T17:30:43.911Z,40.25
2023-05-19T17:35:45.730Z,41.82
2023-05-19T17:40:47.752Z,43.38
2023-05-19T17:45:54.415Z,45.75
2023-05-19T17:50:59.586Z,47.08
2023-05-19T17:56:07.386Z,48.62
2023-05-19T18:01:09.506Z,48.11
2023-05-19T18:06:12.033Z,49.07
2023-05-19T18:11:16.121Z,50.91
2023-05-19T18:16:20.323Z,51.42
2023-05-19T18:21:24.331Z,50.99
2023-05-19T18:26:26.155Z,50.00
2023-05-19T18:31:30.123Z,50.68
2023-05-19T18:36:32.012Z,51.66
2023-05-19T18:41:34.282Z,51.96
2023-05-19T18:46:38.394Z,51.36
2023-05-19T18:51:40.195Z,51.71
2023-05-19T18:56:44.199Z,51.67
2023-05-19T19:01:46.055Z,52.98
2023-05-19T19:06:48.420Z,54.68
2023-05-19T19:11:52.474Z,54.54
2023-05-19T19:16:56.643Z,55.02
2023-05-19T19:21:58.563Z,55.80
2023-05-19T19:27:02.727Z,56.93
2023-05-19T19:32:07.310Z,58.54
2023-05-19T19:37:09.143Z,59.32
2023-05-19T19:42:10.861Z,59.92
2023-05-19T19:47:12.750Z,60.45
2023-05-19T19:52:17.533Z,60.80
2023-05-19T19:57:22.080Z,61.49
2023-05-19T20:02:26.462Z,61.86
2023-05-19T20:07:28.948Z,63.53
2023-05-19T20:12:35.149Z,64.10
2023-05-19T20:17:37.431Z,65.27
2023-05-19T20:22:41.564Z,65.15
2023-05-19T20:27:45.918Z,65.97
2023-05-19T20:32:48.578Z,66.28
2023-05-19T20:37:50.327Z,66.18
2023-05-19T20:42:52.208Z,66.05
2023-05-19T20:47:53.975Z,66.04
2023-05-19T20:52:55.713Z,66.50
2023-05-19T20:57:57.477Z,67.28
2023-05-19T21:03:01.582Z,67.42
2023-05-19T21:08:03.647Z,67.31
2023-05-19T21:13:07.691Z,68.13
2023-05-19T21:18:11.704Z,68.98
2023-05-19T21:23:20.688Z,69.91
2023-05-19T21:28:25.004Z,70.11
2023-05-19T21:33:26.805Z,71.09
2023-05-19T21:38:28.549Z,71.60
2023-05-19T21:43:30.319Z,72.44
2023-05-19T21:48:34.306Z,73.23
2023-05-19T21:53:38.402Z,73.54
2023-05-19T21:58:40.109Z,74.57
2023-05-19T22:03:42.080Z,74.61
2023-05-19T22:08:43.868Z,75.01
2023-05-19T22:13:50.494Z,76.43
2023-05-19T22:18:55.349Z,77.29
2023-05-19T22:23:57.095Z,77.81
2023-05-19T22:29:01.042Z,77.42
2023-05-19T22:34:05.214Z,77.98
2023-05-19T22:39:09.374Z,78.29
2023-05-19T22:44:15.399Z,77.67
2023-05-19T22:49:17.253Z,77.06
2023-05-19T22:54:18.957Z,77.73
2023-05-19T22:59:25.333Z,77.51
2023-05-19T23:04:30.229Z,77.37
2023-05-19T23:09:36.313Z,77.24
2023-05-19T23:14:40.347Z,76.79
2023-05-19T23:19:42.119Z,76.92
2023-05-19T23:24:43.805Z,76.66
2023-05-19T23:29:51.244Z,77.28
2023-05-19T23:34:55.029Z,76.76
2023-05-19T23:39:59.713Z,76.79
2023-05-19T23:45:01.437Z,75.78
2023-05-19T23:50:05.762Z,75.30
2023-05-19T23:55:08.333Z,75.16
